createdAt,value
2024-03-21T00:00:21.202Z,21.80
2024-03-21T00:01:23.456Z,25.60
2024-03-21T00:02:25.726Z,21.50
2024-03-21T00:03:27.818Z,21.80
2024-03-21T00:04:30.095Z,16.30
2024-03-21T00:05:32.456Z,18.90
2024-03-21T00:06:34.951Z,21.10
2024-03-21T00:07:37.275Z,21.90
2024-03-21T00:08:39.667Z,21.80
2024-03-21T00:09:43.183Z,21.00
2024-03-21T00:10:45.599Z,22.40
2024-03-21T00:11:48.047Z,20.50
2024-03-21T00:12:50.926Z,20.90
2024-03-21T00:13:53.183Z,20.70
2024-03-21T00:14:55.499Z,18.10
2024-03-21T00:15:57.736Z,22.90
2024-03-21T00:17:00.377Z,23.10
2024-03-21T00:18:02.954Z,20.30
2024-03-21T00:19:04.973Z,21.20
2024-03-21T00:20:08.453Z,19.90
2024-03-21T00:21:10.788Z,24.00
2024-03-21T00:22:13.001Z,25.10
2024-03-21T00:23:15.223Z,23.56
2024-03-21T00:24:17.899Z,31.00
2024-03-21T00:25:22.204Z,30.30
2024-03-21T00:26:24.649Z,32.20
2024-03-21T00:27:26.813Z,32.20
2024-03-21T00:28:29.542Z,30.10
2024-03-21T00:29:32.608Z,28.30
2024-03-21T00:30:34.998Z,28.50
2024-03-21T00:31:37.450Z,25.50
2024-03-21T00:32:39.761Z,28.40
2024-03-21T00:33:43.298Z,28.80
2024-03-21T00:34:45.519Z,27.30
2024-03-21T00:35:47.784Z,26.70
2024-03-21T00:36:50.159Z,26.90
2024-03-21T00:37:52.391Z,20.40
2024-03-21T00:38:54.836Z,22.40
2024-03-21T00:39:57.023Z,26.80
2024-03-21T00:40:59.416Z,26.90
2024-03-21T00:42:01.746Z,27.90
2024-03-21T00:43:04.061Z,23.80
2024-03-21T00:44:06.229Z,29.20
2024-03-21T00:45:09.142Z,23.60
2024-03-21T00:46:11.776Z,22.30
2024-03-21T00:47:14.042Z,25.40
2024-03-21T00:48:16.329Z,22.80
2024-03-21T00:49:18.548Z,22.40
2024-03-21T00:50:21.097Z,20.70
2024-03-21T00:51:23.356Z,21.80
2024-03-21T00:52:25.722Z,18.70
2024-03-21T00:53:28.031Z,19.30
2024-03-21T00:54:30.213Z,18.80
2024-03-21T00:55:34.276Z,20.60
2024-03-21T00:56:36.639Z,20.20
2024-03-21T00:57:38.957Z,17.20
2024-03-21T00:58:41.047Z,23.60
2024-03-21T00:59:43.186Z,29.20
2024-03-21T01:00:45.687Z,28.80
2024-03-21T01:01:48.884Z,29.60
2024-03-21T01:02:51.416Z,32.50
2024-03-21T01:03:55.228Z,36.70
2024-03-21T01:04:57.545Z,31.90
2024-03-21T01:05:59.831Z,34.70
2024-03-21T01:07:02.257Z,33.90
2024-03-21T01:08:04.528Z,39.10
2024-03-21T01:09:08.020Z,33.60
2024-03-21T01:10:10.620Z,33.00
2024-03-21T01:11:13.133Z,38.30
2024-03-21T01:12:15.436Z,37.90
2024-03-21T01:13:19.080Z,34.60
2024-03-21T01:14:21.162Z,37.50
2024-03-21T01:15:24.022Z,36.60
2024-03-21T01:16:26.371Z,34.73
2024-03-21T01:17:28.769Z,36.50
2024-03-21T01:18:30.919Z,26.60
2024-03-21T01:19:33.144Z,33.90
2024-03-21T01:20:35.721Z,27.20
2024-03-21T01:21:37.874Z,30.50
2024-03-21T01:22:40.214Z,22.80
2024-03-21T01:23:42.460Z,24.00
2024-03-21T01:24:45.671Z,24.70
2024-03-21T01:25:47.953Z,15.80
2024-03-21T01:26:50.235Z,25.30
2024-03-21T01:28:05.976Z,21.70
2024-03-21T01:29:08.495Z,21.80
2024-03-21T01:30:12.305Z,25.00
2024-03-21T01:31:14.673Z,21.00
2024-03-21T01:32:17.017Z,21.50
2024-03-21T01:33:19.287Z,23.60
2024-03-21T01:34:21.354Z,22.89
2024-03-21T01:35:24.255Z,24.50
2024-03-21T01:36:26.618Z,24.18
2024-03-21T01:37:28.945Z,23.20
2024-03-21T01:38:31.224Z,19.90
2024-03-21T01:39:33.411Z,22.30
2024-03-21T01:40:35.878Z,22.50
2024-03-21T01:41:38.185Z,23.10
2024-03-21T01:42:40.445Z,20.60
2024-03-21T01:43:42.768Z,25.70
2024-03-21T01:45:02.041Z,27.30
2024-03-21T01:46:19.690Z,22.20
2024-03-21T01:47:22.093Z,20.60
2024-03-21T01:48:24.220Z,22.60
2024-03-21T01:49:26.504Z,22.40
2024-03-21T01:50:28.930Z,16.00
2024-03-21T01:51:31.350Z,21.00
2024-03-21T01:52:38.232Z,20.30
2024-03-21T01:53:41.826Z,21.50
2024-03-21T01:54:44.931Z,20.50
2024-03-21T01:55:47.199Z,20.50
2024-03-21T01:56:49.641Z,19.50
2024-03-21T01:57:51.866Z,19.50
2024-03-21T01:58:54.115Z,20.00
2024-03-21T01:59:56.383Z,23.30
2024-03-21T02:01:14.530Z,21.80
2024-03-21T02:02:16.811Z,18.10
2024-03-21T02:03:19.303Z,22.30
2024-03-21T02:04:21.449Z,22.20
2024-03-21T02:05:23.630Z,23.00
2024-03-21T02:06:28.416Z,22.40
2024-03-21T02:07:34.453Z,22.20
2024-03-21T02:08:36.834Z,21.10
2024-03-21T02:09:41.566Z,24.60
2024-03-21T02:10:43.523Z,23.90
2024-03-21T02:11:45.849Z,30.10
2024-03-21T02:12:48.046Z,25.40
2024-03-21T02:13:54.084Z,28.90
2024-03-21T02:14:56.795Z,27.80
2024-03-21T02:15:59.089Z,33.70
2024-03-21T02:17:01.214Z,37.00
2024-03-21T02:18:03.912Z,36.10
2024-03-21T02:19:06.194Z,37.80
2024-03-21T02:20:09.777Z,33.70
2024-03-21T02:21:12.304Z,28.80
2024-03-21T02:22:14.596Z,30.90
2024-03-21T02:23:16.723Z,33.20
2024-03-21T02:24:18.858Z,36.22
2024-03-21T02:25:22.954Z,32.20
2024-03-21T02:26:25.835Z,28.80
2024-03-21T02:27:27.979Z,25.30
2024-03-21T02:28:30.334Z,30.10
2024-03-21T02:29:32.501Z,26.10
2024-03-21T02:30:34.830Z,34.00
2024-03-21T02:31:36.854Z,27.20
2024-03-21T02:32:40.139Z,26.10
2024-03-21T02:33:42.368Z,26.90
2024-03-21T02:34:45.732Z,26.40
2024-03-21T02:35:48.028Z,29.10
2024-03-21T02:36:50.329Z,29.50
2024-03-21T02:37:52.688Z,27.40
2024-03-21T02:38:55.058Z,29.90
2024-03-21T02:39:57.458Z,26.50
2024-03-21T02:40:59.728Z,26.40
2024-03-21T02:42:01.945Z,23.10
2024-03-21T02:43:05.970Z,22.20
2024-03-21T02:44:08.147Z,25.80
2024-03-21T02:45:10.375Z,25.30
2024-03-21T02:46:12.716Z,27.20
2024-03-21T02:47:18.827Z,23.90
2024-03-21T02:48:21.140Z,26.00
2024-03-21T02:49:23.321Z,23.20
2024-03-21T02:50:25.707Z,24.30
2024-03-21T02:51:28.038Z,23.30
2024-03-21T02:52:30.391Z,24.00
2024-03-21T02:53:32.804Z,21.30
2024-03-21T02:54:35.414Z,26.40
2024-03-21T02:55:37.679Z,23.40
2024-03-21T02:56:39.907Z,21.80
2024-03-21T02:57:42.215Z,22.90
2024-03-21T02:58:44.424Z,20.70
2024-03-21T02:59:46.929Z,22.70
2024-03-21T03:00:49.289Z,20.00
2024-03-21T03:01:52.862Z,23.20
2024-03-21T03:02:55.355Z,25.80
2024-03-21T03:03:57.635Z,25.90
2024-03-21T03:04:59.933Z,22.50
2024-03-21T03:06:02.658Z,17.70
2024-03-21T03:07:05.109Z,22.20
2024-03-21T03:08:07.409Z,25.10
2024-03-21T03:09:09.571Z,20.50
2024-03-21T03:10:12.493Z,23.10
2024-03-21T03:11:14.707Z,22.30
2024-03-21T03:12:16.906Z,22.40
2024-03-21T03:13:19.349Z,20.20
2024-03-21T03:14:21.677Z,18.60
2024-03-21T03:15:24.015Z,20.00
2024-03-21T03:16:26.371Z,20.40
2024-03-21T03:17:28.793Z,21.60
2024-03-21T03:18:31.096Z,18.80
2024-03-21T03:19:33.263Z,20.70
2024-03-21T03:20:35.587Z,20.90
2024-03-21T03:21:37.669Z,17.50
2024-03-21T03:22:39.949Z,19.40
2024-03-21T03:23:42.260Z,22.50
2024-03-21T03:24:44.609Z,13.00
2024-03-21T03:25:46.795Z,17.60
2024-03-21T03:26:49.392Z,21.50
2024-03-21T03:27:51.485Z,17.90
2024-03-21T03:28:53.688Z,23.00
2024-03-21T03:29:55.978Z,23.00
2024-03-21T03:30:58.403Z,19.10
2024-03-21T03:32:00.810Z,17.90
2024-03-21T03:33:03.286Z,19.50
2024-03-21T03:34:05.624Z,18.00
2024-03-21T03:35:08.224Z,20.80
2024-03-21T03:36:10.780Z,19.09
2024-03-21T03:37:13.051Z,22.20
2024-03-21T03:38:15.204Z,20.80
2024-03-21T03:39:17.440Z,22.80
2024-03-21T03:40:19.859Z,23.10
2024-03-21T03:41:22.278Z,21.50
2024-03-21T03:42:24.554Z,25.30
2024-03-21T03:43:26.598Z,21.80
2024-03-21T03:44:28.968Z,25.20
2024-03-21T03:45:31.324Z,25.20
2024-03-21T03:46:33.626Z,23.00
2024-03-21T03:47:36.044Z,22.60
2024-03-21T03:48:40.279Z,25.20
2024-03-21T03:49:42.481Z,20.90
2024-03-21T03:50:45.030Z,21.20
2024-03-21T03:51:47.475Z,21.40
2024-03-21T03:52:49.661Z,20.20
2024-03-21T03:53:52.002Z,28.40
2024-03-21T03:54:54.209Z,20.40
2024-03-21T03:55:56.452Z,23.30
2024-03-21T03:56:58.820Z,26.50
2024-03-21T03:58:01.039Z,22.90
2024-03-21T03:59:03.363Z,26.70
2024-03-21T04:00:06.662Z,25.40
2024-03-21T04:01:14.603Z,25.20
2024-03-21T04:02:16.941Z,22.20
2024-03-21T04:03:19.092Z,24.20
2024-03-21T04:04:21.448Z,25.80
2024-03-21T04:05:23.648Z,23.20
2024-03-21T04:06:26.089Z,21.80
2024-03-21T04:07:28.246Z,19.40
2024-03-21T04:08:30.775Z,26.90
2024-03-21T04:09:33.073Z,20.30
2024-03-21T04:10:35.527Z,20.00
2024-03-21T04:11:37.823Z,11.60
2024-03-21T04:12:40.654Z,19.40
2024-03-21T04:13:43.290Z,26.09
2024-03-21T04:14:45.550Z,19.50
2024-03-21T04:15:53.651Z,18.00
2024-03-21T04:16:56.304Z,23.20
2024-03-21T04:17:58.466Z,20.60
2024-03-21T04:19:00.723Z,19.00
2024-03-21T04:20:03.685Z,25.60
2024-03-21T04:21:05.933Z,25.27
2024-03-21T04:22:08.191Z,24.30
2024-03-21T04:23:10.410Z,25.30
2024-03-21T04:24:12.701Z,25.30
2024-03-21T04:25:14.973Z,25.70
2024-03-21T04:26:17.240Z,23.40
2024-03-21T04:27:19.458Z,19.20
2024-03-21T04:28:21.684Z,20.90
2024-03-21T04:29:23.860Z,20.90
2024-03-21T04:30:26.188Z,21.90
2024-03-21T04:31:28.425Z,19.60
2024-03-21T04:32:30.918Z,21.20
2024-03-21T04:33:32.971Z,21.30
2024-03-21T04:34:35.283Z,17.00
2024-03-21T04:35:37.739Z,21.80
2024-03-21T04:36:42.316Z,21.00
2024-03-21T04:37:44.508Z,19.30
2024-03-21T04:38:47.250Z,17.80
2024-03-21T04:39:49.758Z,19.36
2024-03-21T04:40:52.187Z,19.00
2024-03-21T04:41:54.564Z,20.00
2024-03-21T04:42:58.086Z,19.20
2024-03-21T04:44:00.425Z,22.80
2024-03-21T04:45:02.715Z,25.30
2024-03-21T04:46:04.950Z,21.00
2024-03-21T04:47:07.194Z,20.20
2024-03-21T04:48:09.344Z,21.40
2024-03-21T04:49:11.634Z,22.70
2024-03-21T04:50:13.919Z,18.10
2024-03-21T04:51:16.415Z,20.30
2024-03-21T04:52:18.744Z,22.40
2024-03-21T04:53:21.067Z,23.10
2024-03-21T04:54:25.335Z,23.60
2024-03-21T04:55:29.373Z,21.50
2024-03-21T04:56:31.787Z,21.80
2024-03-21T04:57:34.024Z,21.00
2024-03-21T04:58:36.299Z,21.80
2024-03-21T04:59:38.610Z,20.40
2024-03-21T05:00:40.888Z,21.20
2024-03-21T05:01:43.109Z,23.00
2024-03-21T05:02:45.379Z,25.30
2024-03-21T05:03:47.692Z,26.40
2024-03-21T05:04:50.119Z,26.60
2024-03-21T05:05:52.237Z,22.00
2024-03-21T05:06:54.839Z,24.60
2024-03-21T05:07:57.120Z,25.70
2024-03-21T05:08:59.451Z,27.30
2024-03-21T05:10:02.257Z,22.70
2024-03-21T05:11:04.643Z,22.27
2024-03-21T05:12:07.230Z,23.40
2024-03-21T05:13:09.554Z,24.10
2024-03-21T05:14:11.702Z,21.70
2024-03-21T05:15:15.964Z,20.60
2024-03-21T05:16:18.557Z,23.10
2024-03-21T05:17:20.727Z,23.50
2024-03-21T05:18:23.083Z,21.70
2024-03-21T05:19:25.394Z,20.90
2024-03-21T05:20:27.872Z,23.60
2024-03-21T05:21:30.128Z,21.60
2024-03-21T05:22:32.329Z,21.80
2024-03-21T05:23:34.747Z,11.80
2024-03-21T05:24:37.185Z,25.40
2024-03-21T05:25:39.759Z,21.70
2024-03-21T05:26:42.369Z,20.82
2024-03-21T05:27:44.578Z,19.80
2024-03-21T05:28:46.921Z,20.20
2024-03-21T05:29:49.240Z,22.00
2024-03-21T05:30:54.738Z,20.10
2024-03-21T05:31:56.093Z,23.90
2024-03-21T05:32:58.294Z,26.70
2024-03-21T05:34:00.976Z,24.70
2024-03-21T05:35:03.477Z,24.20
2024-03-21T05:36:07.934Z,24.30
2024-03-21T05:37:10.247Z,22.80
2024-03-21T05:38:15.230Z,27.80
2024-03-21T05:39:16.655Z,21.70
2024-03-21T05:40:19.201Z,27.70
2024-03-21T05:41:21.514Z,20.70
2024-03-21T05:42:23.680Z,18.60
2024-03-21T05:43:25.952Z,23.90
2024-03-21T05:44:29.230Z,19.50
2024-03-21T05:45:31.546Z,24.40
2024-03-21T05:46:34.255Z,21.50
2024-03-21T05:47:37.340Z,21.40
2024-03-21T05:48:39.733Z,25.45
2024-03-21T05:49:42.081Z,24.20
2024-03-21T05:50:44.700Z,25.70
2024-03-21T05:51:46.916Z,24.00
2024-03-21T05:52:49.139Z,24.10
2024-03-21T05:53:51.580Z,24.90
2024-03-21T05:54:54.065Z,24.60
2024-03-21T05:56:03.758Z,21.00
2024-03-21T05:57:05.864Z,20.30
2024-03-21T05:58:08.498Z,24.20
2024-03-21T05:59:10.918Z,29.30
2024-03-21T06:00:14.605Z,27.90
2024-03-21T06:01:18.193Z,36.30
2024-03-21T06:02:20.755Z,39.10
2024-03-21T06:03:22.952Z,47.60
2024-03-21T06:04:25.524Z,49.10
2024-03-21T06:05:28.318Z,60.50
2024-03-21T06:06:30.665Z,62.00
2024-03-21T06:07:33.019Z,58.60
2024-03-21T06:08:35.556Z,50.10
2024-03-21T06:09:37.866Z,46.20
2024-03-21T06:10:40.400Z,58.10
2024-03-21T06:11:42.647Z,57.30
2024-03-21T06:12:45.052Z,51.30
2024-03-21T06:13:47.136Z,40.60
2024-03-21T06:14:49.328Z,35.00
2024-03-21T06:15:51.846Z,31.30
2024-03-21T06:16:54.410Z,31.70
2024-03-21T06:17:56.736Z,28.60
2024-03-21T06:18:58.927Z,32.10
2024-03-21T06:20:01.220Z,33.80
2024-03-21T06:21:03.895Z,34.80
2024-03-21T06:22:06.199Z,34.50
2024-03-21T06:23:09.069Z,31.40
2024-03-21T06:24:11.496Z,35.18
2024-03-21T06:25:13.971Z,32.20
2024-03-21T06:26:16.884Z,34.00
2024-03-21T06:27:19.171Z,35.60
2024-03-21T06:28:21.682Z,35.00
2024-03-21T06:29:24.243Z,30.55
2024-03-21T06:30:27.003Z,29.00
2024-03-21T06:31:30.669Z,32.60
2024-03-21T06:32:33.166Z,37.20
2024-03-21T06:33:36.178Z,40.50
2024-03-21T06:34:38.992Z,34.50
2024-03-21T06:35:41.100Z,32.80
2024-03-21T06:36:43.529Z,30.50
2024-03-21T06:37:45.929Z,31.50
2024-03-21T06:38:49.459Z,29.40
2024-03-21T06:39:51.704Z,30.00
2024-03-21T06:40:54.022Z,34.10
2024-03-21T06:41:56.481Z,27.00
2024-03-21T06:42:59.129Z,27.90
2024-03-21T06:44:01.611Z,36.82
2024-03-21T06:45:04.357Z,40.50
2024-03-21T06:46:06.859Z,34.27
2024-03-21T06:47:11.045Z,26.40
2024-03-21T06:48:13.365Z,27.00
2024-03-21T06:49:15.681Z,28.20
2024-03-21T06:50:18.919Z,31.80
2024-03-21T06:51:21.309Z,28.70
2024-03-21T06:52:24.287Z,31.60
2024-03-21T06:53:26.956Z,33.45
2024-03-21T06:54:29.406Z,30.18
2024-03-21T06:55:33.806Z,25.90
2024-03-21T06:56:36.418Z,29.09
2024-03-21T06:57:46.674Z,33.30
2024-03-21T06:58:49.232Z,30.30
2024-03-21T06:59:51.989Z,33.40
2024-03-21T07:00:54.698Z,26.40
2024-03-21T07:01:58.818Z,32.90
2024-03-21T07:03:01.148Z,36.20
2024-03-21T07:04:03.771Z,68.10
2024-03-21T07:05:08.431Z,81.60
2024-03-21T07:06:11.165Z,112.50
2024-03-21T07:07:13.656Z,82.50
2024-03-21T07:08:16.300Z,86.80
2024-03-21T07:09:18.514Z,74.10
2024-03-21T07:10:21.204Z,77.40
2024-03-21T07:11:23.532Z,102.40
2024-03-21T07:12:26.047Z,154.10
2024-03-21T07:13:28.273Z,139.10
2024-03-21T07:14:30.670Z,143.00
2024-03-21T07:15:32.918Z,154.80
2024-03-21T07:16:35.395Z,177.70
2024-03-21T07:17:37.613Z,157.70
2024-03-21T07:18:39.949Z,90.80
2024-03-21T07:19:42.323Z,127.80
2024-03-21T07:20:44.493Z,102.10
2024-03-21T07:21:46.872Z,84.00
2024-03-21T07:22:49.943Z,83.80
2024-03-21T07:23:52.366Z,74.50
2024-03-21T07:24:54.552Z,51.10
2024-03-21T07:25:59.036Z,53.33
2024-03-21T07:27:01.162Z,51.60
2024-03-21T07:28:04.191Z,59.20
2024-03-21T07:29:06.661Z,49.18
2024-03-21T07:30:10.438Z,64.18
2024-03-21T07:31:12.908Z,95.60
2024-03-21T07:32:15.253Z,82.90
2024-03-21T07:33:17.410Z,54.60
2024-03-21T07:34:19.670Z,53.70
2024-03-21T07:35:21.870Z,68.50
2024-03-21T07:36:24.338Z,70.70
2024-03-21T07:37:26.512Z,64.10
2024-03-21T07:38:28.992Z,53.50
2024-03-21T07:39:32.084Z,50.20
2024-03-21T07:40:34.763Z,48.50
2024-03-21T07:41:37.164Z,53.20
2024-03-21T07:42:39.432Z,52.90
2024-03-21T07:43:41.834Z,54.40
2024-03-21T07:44:44.056Z,50.90
2024-03-21T07:45:46.293Z,49.20
2024-03-21T07:46:50.148Z,41.10
2024-03-21T07:47:52.379Z,37.20
2024-03-21T07:48:54.683Z,44.80
2024-03-21T07:49:57.046Z,44.10
2024-03-21T07:50:59.575Z,51.30
2024-03-21T07:52:01.783Z,52.60
2024-03-21T07:53:04.395Z,44.30
2024-03-21T07:54:06.605Z,46.00
2024-03-21T07:55:09.335Z,52.20
2024-03-21T07:56:11.906Z,63.91
2024-03-21T07:57:14.100Z,59.30
2024-03-21T07:58:17.626Z,53.60
2024-03-21T07:59:19.874Z,49.10
2024-03-21T08:00:22.231Z,52.60
2024-03-21T08:01:26.917Z,41.40
2024-03-21T08:02:29.365Z,50.60
2024-03-21T08:03:31.564Z,55.30
2024-03-21T08:04:33.704Z,54.60
2024-03-21T08:05:37.850Z,54.60
2024-03-21T08:06:40.328Z,49.10
2024-03-21T08:07:42.626Z,31.10
2024-03-21T08:08:45.071Z,32.50
2024-03-21T08:09:47.352Z,32.50
2024-03-21T08:10:50.020Z,32.90
2024-03-21T08:11:53.532Z,32.20
2024-03-21T08:12:55.909Z,34.27
2024-03-21T08:13:58.311Z,35.80
2024-03-21T08:15:00.804Z,36.50
2024-03-21T08:16:03.374Z,33.10
2024-03-21T08:17:05.761Z,30.80
2024-03-21T08:18:08.238Z,28.50
2024-03-21T08:19:10.478Z,30.60
2024-03-21T08:20:13.151Z,30.90
2024-03-21T08:21:17.912Z,26.30
2024-03-21T08:22:19.732Z,33.10
2024-03-21T08:23:22.218Z,36.50
2024-03-21T08:24:24.526Z,45.50
2024-03-21T08:25:28.206Z,46.40
2024-03-21T08:26:30.518Z,67.00
2024-03-21T08:27:32.982Z,76.50
2024-03-21T08:28:37.330Z,56.00
2024-03-21T08:29:39.489Z,59.10
2024-03-21T08:30:41.921Z,49.60
2024-03-21T08:31:44.308Z,38.60
2024-03-21T08:33:06.464Z,38.90
2024-03-21T08:34:08.731Z,44.10
2024-03-21T08:35:11.060Z,45.00
2024-03-21T08:36:14.852Z,34.30
2024-03-21T08:37:17.307Z,35.50
2024-03-21T08:38:19.968Z,30.40
2024-03-21T08:39:22.187Z,30.70
2024-03-21T08:40:24.637Z,29.30
2024-03-21T08:41:26.943Z,31.20
2024-03-21T08:42:29.931Z,38.80
2024-03-21T08:43:32.208Z,43.20
2024-03-21T08:44:34.684Z,49.10
2024-03-21T08:45:36.896Z,39.10
2024-03-21T08:46:39.342Z,44.60
2024-03-21T08:47:41.911Z,36.40
2024-03-21T08:48:44.138Z,32.30
2024-03-21T08:49:47.368Z,30.50
2024-03-21T08:50:49.898Z,32.40
2024-03-21T08:51:52.253Z,30.20
2024-03-21T08:52:54.680Z,32.50
2024-03-21T08:53:56.875Z,27.00
2024-03-21T08:54:59.211Z,30.40
2024-03-21T08:56:01.358Z,32.50
2024-03-21T08:57:03.837Z,34.70
2024-03-21T08:58:06.092Z,39.80
2024-03-21T08:59:08.829Z,33.80
2024-03-21T09:00:12.521Z,35.10
2024-03-21T09:01:15.771Z,35.50
2024-03-21T09:02:18.693Z,37.20
2024-03-21T09:03:23.038Z,26.70
2024-03-21T09:04:25.192Z,28.10
2024-03-21T09:05:27.841Z,31.70
2024-03-21T09:06:31.773Z,30.10
2024-03-21T09:07:34.116Z,25.50
2024-03-21T09:08:36.440Z,23.30
2024-03-21T09:09:38.922Z,24.30
2024-03-21T09:10:41.307Z,31.00
2024-03-21T09:11:43.979Z,23.91
2024-03-21T09:12:46.622Z,26.10
2024-03-21T09:13:49.141Z,31.91
2024-03-21T09:14:51.366Z,29.60
2024-03-21T09:15:53.708Z,20.80
2024-03-21T09:16:56.195Z,22.00
2024-03-21T09:17:58.393Z,23.90
2024-03-21T09:19:00.718Z,26.20
2024-03-21T09:20:03.382Z,24.60
2024-03-21T09:21:05.650Z,23.70
2024-03-21T09:22:08.060Z,24.50
2024-03-21T09:23:10.477Z,24.70
2024-03-21T09:24:12.922Z,29.40
2024-03-21T09:25:16.657Z,25.30
2024-03-21T09:26:19.281Z,25.10
2024-03-21T09:27:25.814Z,24.60
2024-03-21T09:28:27.539Z,23.40
2024-03-21T09:29:29.937Z,20.10
2024-03-21T09:30:32.496Z,23.40
2024-03-21T09:31:35.087Z,24.60
2024-03-21T09:32:37.417Z,23.50
2024-03-21T09:33:39.742Z,24.20
2024-03-21T09:34:42.490Z,21.30
2024-03-21T09:35:45.105Z,21.90
2024-03-21T09:36:47.650Z,22.80
2024-03-21T09:37:49.833Z,22.70
2024-03-21T09:38:52.389Z,22.70
2024-03-21T09:39:54.750Z,28.40
2024-03-21T09:40:59.157Z,25.80
2024-03-21T09:42:02.535Z,28.00
2024-03-21T09:43:05.261Z,31.00
2024-03-21T09:44:11.385Z,25.80
2024-03-21T09:45:14.033Z,27.10
2024-03-21T09:46:19.723Z,27.80
2024-03-21T09:47:24.367Z,25.50
2024-03-21T09:48:27.006Z,20.40
2024-03-21T09:49:32.338Z,22.20
2024-03-21T09:50:35.107Z,24.91
2024-03-21T09:51:39.353Z,17.10
2024-03-21T09:52:41.828Z,22.40
2024-03-21T09:53:44.115Z,19.00
2024-03-21T09:54:46.563Z,24.30
2024-03-21T09:55:48.987Z,21.40
2024-03-21T09:56:53.962Z,19.00
2024-03-21T09:57:56.424Z,27.30
2024-03-21T09:59:00.676Z,29.90
2024-03-21T10:00:03.571Z,25.70
2024-03-21T10:01:22.682Z,23.00
2024-03-21T10:02:25.098Z,24.50
2024-03-21T10:03:27.295Z,21.00
2024-03-21T10:04:29.938Z,22.00
2024-03-21T10:05:32.428Z,22.00
2024-03-21T10:06:48.200Z,21.40
2024-03-21T10:07:50.569Z,23.80
2024-03-21T10:08:53.330Z,23.60
2024-03-21T10:09:56.947Z,21.50
2024-03-21T10:11:01.330Z,19.40
2024-03-21T10:12:03.998Z,21.20
2024-03-21T10:13:08.219Z,21.30
2024-03-21T10:14:13.059Z,20.80
2024-03-21T10:15:15.360Z,23.30
2024-03-21T10:16:18.616Z,25.70
2024-03-21T10:17:21.021Z,25.90
2024-03-21T10:18:23.300Z,23.00
2024-03-21T10:19:25.576Z,20.20
2024-03-21T10:20:28.013Z,20.50
2024-03-21T10:21:30.301Z,23.60
2024-03-21T10:22:32.492Z,30.80
2024-03-21T10:23:35.641Z,29.40
2024-03-21T10:24:38.637Z,22.20
2024-03-21T10:25:40.828Z,22.70
2024-03-21T10:26:43.428Z,22.70
2024-03-21T10:27:48.834Z,22.60
2024-03-21T10:28:51.470Z,17.40
2024-03-21T10:29:55.523Z,23.10
2024-03-21T10:30:58.261Z,24.30
2024-03-21T10:32:00.595Z,19.80
2024-03-21T10:33:03.506Z,23.50
2024-03-21T10:34:06.913Z,22.09
2024-03-21T10:35:19.171Z,23.90
2024-03-21T10:36:18.719Z,23.70
2024-03-21T10:37:23.120Z,23.30
2024-03-21T10:38:26.819Z,25.60
2024-03-21T10:39:29.162Z,20.50
2024-03-21T10:40:33.440Z,22.80
2024-03-21T10:41:36.815Z,21.10
2024-03-21T10:42:41.976Z,19.90
2024-03-21T10:43:46.675Z,19.30
2024-03-21T10:44:50.267Z,18.50
2024-03-21T10:45:52.897Z,15.90
2024-03-21T10:46:58.265Z,18.18
2024-03-21T10:48:00.526Z,16.50
2024-03-21T10:49:03.073Z,18.00
2024-03-21T10:50:09.858Z,18.82
2024-03-21T10:51:17.844Z,21.60
2024-03-21T10:52:20.656Z,17.30
2024-03-21T10:53:23.762Z,18.73
2024-03-21T10:54:26.246Z,18.50
2024-03-21T10:55:28.568Z,20.20
2024-03-21T10:56:38.238Z,19.30
2024-03-21T10:57:40.490Z,20.10
2024-03-21T10:58:43.377Z,16.00
2024-03-21T10:59:58.752Z,14.80
2024-03-21T11:01:03.441Z,17.50
2024-03-21T11:02:05.913Z,16.20
2024-03-21T11:03:11.717Z,13.90
2024-03-21T11:04:14.458Z,15.20
2024-03-21T11:05:18.533Z,13.10
2024-03-21T11:06:26.493Z,15.70
2024-03-21T11:07:31.308Z,11.60
2024-03-21T11:08:33.650Z,14.80
2024-03-21T11:09:36.011Z,15.60
2024-03-21T11:10:39.103Z,15.70
2024-03-21T11:11:42.094Z,14.36
2024-03-21T11:12:46.956Z,13.30
2024-03-21T11:14:02.266Z,15.60
2024-03-21T11:15:05.840Z,17.20
2024-03-21T11:16:08.733Z,16.60
2024-03-21T11:17:13.528Z,17.50
2024-03-21T11:18:15.897Z,15.10
2024-03-21T11:19:20.035Z,14.10
2024-03-21T11:20:22.636Z,17.70
2024-03-21T11:21:25.454Z,18.20
2024-03-21T11:22:27.836Z,17.36
2024-03-21T11:23:30.609Z,17.18
2024-03-21T11:24:33.106Z,17.00
2024-03-21T11:25:35.936Z,17.00
2024-03-21T11:26:38.661Z,20.40
2024-03-21T11:27:42.229Z,19.60
2024-03-21T11:28:45.877Z,21.60
2024-03-21T11:29:48.223Z,18.90
2024-03-21T11:30:50.681Z,16.50
2024-03-21T11:31:52.911Z,19.80
2024-03-21T11:32:55.261Z,17.80
2024-03-21T11:33:57.476Z,21.00
2024-03-21T11:34:59.868Z,22.20
2024-03-21T11:36:02.209Z,17.70
2024-03-21T11:37:04.949Z,18.00
2024-03-21T11:38:11.290Z,20.80
2024-03-21T11:39:14.840Z,20.80
2024-03-21T11:40:21.580Z,16.40
2024-03-21T11:41:24.368Z,16.40
2024-03-21T11:42:26.907Z,16.45
2024-03-21T11:43:29.818Z,16.40
2024-03-21T11:44:32.168Z,16.27
2024-03-21T11:45:37.786Z,15.00
2024-03-21T11:46:43.616Z,17.30
2024-03-21T11:47:46.188Z,18.60
2024-03-21T11:49:11.865Z,16.10
2024-03-21T11:50:16.242Z,23.00
2024-03-21T11:51:18.663Z,21.10
2024-03-21T11:52:21.143Z,16.80
2024-03-21T11:53:23.610Z,9.50
2024-03-21T11:54:27.191Z,16.50
2024-03-21T11:55:31.333Z,19.50
2024-03-21T11:56:35.092Z,20.80
2024-03-21T11:57:37.532Z,18.60
2024-03-21T11:58:39.872Z,19.80
2024-03-21T11:59:46.450Z,17.00
2024-03-21T12:00:49.375Z,21.00
2024-03-21T12:01:51.895Z,20.00
2024-03-21T12:02:54.255Z,15.30
2024-03-21T12:03:56.625Z,14.50
2024-03-21T12:04:58.893Z,13.90
2024-03-21T12:06:01.203Z,23.36
2024-03-21T12:07:03.550Z,47.60
2024-03-21T12:08:06.336Z,43.70
2024-03-21T12:09:08.784Z,46.00
2024-03-21T12:10:12.785Z,36.55
2024-03-21T12:11:16.702Z,60.00
2024-03-21T12:12:19.035Z,72.00
2024-03-21T12:13:21.416Z,65.30
2024-03-21T12:14:23.812Z,68.30
2024-03-21T12:15:26.610Z,53.40
2024-03-21T12:16:29.252Z,42.40
2024-03-21T12:17:32.599Z,28.90
2024-03-21T12:18:35.137Z,33.60
2024-03-21T12:19:38.227Z,28.50
2024-03-21T12:20:40.779Z,22.30
2024-03-21T12:21:43.076Z,23.40
2024-03-21T12:22:46.706Z,37.10
2024-03-21T12:23:49.664Z,33.50
2024-03-21T12:24:52.394Z,38.50
2024-03-21T12:25:54.781Z,26.70
2024-03-21T12:26:57.190Z,22.40
2024-03-21T12:27:59.517Z,19.80
2024-03-21T12:29:01.706Z,19.10
2024-03-21T12:30:05.080Z,17.70
2024-03-21T12:31:16.847Z,21.50
2024-03-21T12:32:19.313Z,31.90
2024-03-21T12:33:21.679Z,64.20
2024-03-21T12:34:25.025Z,58.40
2024-03-21T12:35:27.589Z,63.60
2024-03-21T12:36:31.231Z,69.30
2024-03-21T12:37:34.818Z,63.90
2024-03-21T12:38:37.595Z,54.40
2024-03-21T12:39:39.880Z,34.40
2024-03-21T12:40:44.210Z,21.60
2024-03-21T12:41:46.717Z,50.90
2024-03-21T12:42:49.235Z,32.20
2024-03-21T12:43:51.527Z,26.20
2024-03-21T12:44:53.745Z,29.60
2024-03-21T12:45:56.173Z,49.90
2024-03-21T12:46:58.804Z,50.10
2024-03-21T12:48:01.595Z,59.50
2024-03-21T12:49:03.970Z,37.40
2024-03-21T12:50:07.572Z,44.00
2024-03-21T12:51:11.107Z,49.00
2024-03-21T12:52:13.910Z,33.60
2024-03-21T12:53:18.735Z,28.00
2024-03-21T12:54:21.189Z,51.00
2024-03-21T12:55:25.376Z,43.10
2024-03-21T12:56:27.733Z,30.20
2024-03-21T12:57:30.089Z,28.50
2024-03-21T12:58:32.272Z,35.50
2024-03-21T12:59:35.683Z,24.80
2024-03-21T13:00:38.281Z,21.40
2024-03-21T13:01:40.944Z,23.45
2024-03-21T13:02:43.399Z,21.00
2024-03-21T13:03:45.988Z,18.80
2024-03-21T13:04:49.864Z,20.40
2024-03-21T13:05:52.241Z,19.70
2024-03-21T13:06:54.624Z,24.30
2024-03-21T13:07:57.003Z,26.00
2024-03-21T13:08:59.075Z,27.90
2024-03-21T13:10:01.662Z,49.40
2024-03-21T13:11:04.313Z,67.70
2024-03-21T13:12:06.962Z,51.30
2024-03-21T13:13:09.261Z,29.10
2024-03-21T13:14:11.618Z,19.30
2024-03-21T13:15:14.115Z,16.70
2024-03-21T13:16:16.912Z,19.73
2024-03-21T13:17:23.142Z,16.70
2024-03-21T13:18:25.635Z,13.80
2024-03-21T13:19:28.213Z,15.30
2024-03-21T13:20:30.595Z,19.80
2024-03-21T13:21:35.158Z,18.00
2024-03-21T13:22:39.444Z,20.80
2024-03-21T13:23:41.907Z,16.10
2024-03-21T13:24:44.378Z,13.90
2024-03-21T13:25:46.490Z,18.30
2024-03-21T13:26:49.246Z,23.70
2024-03-21T13:27:51.634Z,19.70
2024-03-21T13:28:54.080Z,42.30
2024-03-21T13:29:56.459Z,41.60
2024-03-21T13:30:59.010Z,28.00